createdAt,value
2017-12-01T00:00:30.527Z,26.37
2017-12-01T00:02:58.844Z,21.70
2017-12-01T00:05:26.372Z,21.10
2017-12-01T00:07:54.667Z,18.13
2017-12-01T00:10:22.171Z,20.33
2017-12-01T00:12:49.692Z,22.70
2017-12-01T00:15:17.612Z,17.27
2017-12-01T00:17:45.121Z,16.83
2017-12-01T00:20:12.650Z,18.87
2017-12-01T00:22:40.923Z,20.60
2017-12-01T00:25:09.263Z,18.20
2017-12-01T00:27:36.772Z,21.20
2017-12-01T00:30:05.040Z,18.30
2017-12-01T00:32:33.332Z,18.00
2017-12-01T00:35:00.833Z,15.87
2017-12-01T00:37:29.115Z,15.47
2017-12-01T00:39:56.627Z,19.57
2017-12-01T00:42:24.127Z,19.43
2017-12-01T00:44:52.644Z,16.40
2017-12-01T00:47:21.112Z,17.87
2017-12-01T00:49:49.438Z,15.73
2017-12-01T00:52:16.938Z,15.70
2017-12-01T00:54:44.510Z,17.60
2017-12-01T00:57:12.008Z,16.37
2017-12-01T00:59:39.514Z,17.00
2017-12-01T01:02:07.040Z,15.90
2017-12-01T01:04:36.888Z,17.60
2017-12-01T01:07:04.415Z,16.73
2017-12-01T01:09:31.934Z,18.00
2017-12-01T01:11:59.469Z,13.97
2017-12-01T01:14:27.004Z,16.07
2017-12-01T01:16:54.523Z,16.80
2017-12-01T01:19:22.064Z,18.70
2017-12-01T01:21:50.341Z,13.50
2017-12-01T01:24:18.649Z,18.30
2017-12-01T01:26:46.156Z,15.57
2017-12-01T01:29:13.672Z,13.87
2017-12-01T01:31:41.205Z,15.27
2017-12-01T01:34:09.473Z,11.97
2017-12-01T01:36:37.779Z,13.57
2017-12-01T01:39:06.160Z,16.27
2017-12-01T01:41:33.693Z,15.77
2017-12-01T01:44:01.215Z,14.13
2017-12-01T01:46:28.720Z,14.40
2017-12-01T01:48:56.242Z,19.13
2017-12-01T01:51:23.739Z,16.97
2017-12-01T01:53:51.258Z,17.40
2017-12-01T01:56:18.756Z,13.50
2017-12-01T01:58:46.267Z,14.90
2017-12-01T02:01:13.787Z,15.60
2017-12-01T02:03:41.286Z,15.40
2017-12-01T02:06:08.820Z,20.77
2017-12-01T02:08:36.319Z,17.20
2017-12-01T02:11:03.855Z,16.57
2017-12-01T02:13:31.351Z,16.60
2017-12-01T02:15:59.639Z,16.97
2017-12-01T02:18:27.135Z,19.83
2017-12-01T02:20:54.631Z,17.73
2017-12-01T02:23:22.918Z,18.80
2017-12-01T02:25:51.189Z,18.53
2017-12-01T02:28:21.278Z,13.10
2017-12-01T02:30:49.548Z,15.60
2017-12-01T02:33:17.835Z,18.60
2017-12-01T02:35:45.338Z,16.90
2017-12-01T02:38:12.834Z,22.40
2017-12-01T02:40:40.360Z,17.63
2017-12-01T02:43:07.862Z,20.83
2017-12-01T02:45:35.391Z,16.60
2017-12-01T02:48:02.887Z,18.07
2017-12-01T02:50:30.411Z,14.93
2017-12-01T02:52:57.918Z,14.73
2017-12-01T02:55:25.423Z,14.70
2017-12-01T02:57:52.951Z,16.33
2017-12-01T03:00:21.225Z,15.60
2017-12-01T03:02:49.511Z,18.30
2017-12-01T03:05:17.779Z,19.27
2017-12-01T03:07:46.070Z,17.73
2017-12-01T03:10:13.575Z,24.60
2017-12-01T03:12:41.087Z,17.67
2017-12-01T03:15:08.625Z,19.10
2017-12-01T03:17:36.899Z,22.30
2017-12-01T03:20:05.188Z,20.33
2017-12-01T03:22:33.463Z,20.70
2017-12-01T03:25:01.727Z,21.03
2017-12-01T03:27:29.247Z,22.77
2017-12-01T03:29:56.760Z,26.80
2017-12-01T03:32:25.053Z,24.63
2017-12-01T03:34:52.555Z,22.60
2017-12-01T03:37:20.877Z,25.33
2017-12-01T03:39:48.387Z,22.70
2017-12-01T03:42:15.933Z,21.17
2017-12-01T03:44:43.439Z,24.70
2017-12-01T03:47:11.716Z,25.20
2017-12-01T03:49:40.785Z,25.03
2017-12-01T03:52:08.286Z,23.93
2017-12-01T03:54:35.807Z,22.50
2017-12-01T03:57:03.341Z,24.40
2017-12-01T03:59:30.834Z,26.90
2017-12-01T04:01:58.351Z,27.57
2017-12-01T04:04:25.855Z,28.47
2017-12-01T04:06:54.168Z,26.90
2017-12-01T04:09:21.661Z,26.03
2017-12-01T04:11:49.174Z,23.00
2017-12-01T04:14:16.671Z,24.93
2017-12-01T04:16:44.196Z,26.77
2017-12-01T04:19:11.699Z,25.73
2017-12-01T04:21:39.194Z,28.50
2017-12-01T04:24:07.480Z,24.10
2017-12-01T04:26:34.976Z,26.17
2017-12-01T04:29:02.489Z,29.30
2017-12-01T04:31:30.750Z,28.17
2017-12-01T04:33:58.270Z,28.30
2017-12-01T04:36:25.766Z,25.37
2017-12-01T04:38:54.062Z,26.43
2017-12-01T04:41:22.330Z,32.07
2017-12-01T04:43:50.622Z,21.70
2017-12-01T04:46:18.126Z,28.83
2017-12-01T04:48:45.647Z,26.57
2017-12-01T04:51:13.146Z,27.57
2017-12-01T04:53:40.642Z,23.43
2017-12-01T04:56:08.929Z,26.60
2017-12-01T04:58:36.429Z,27.73
2017-12-01T05:01:03.948Z,24.17
2017-12-01T05:03:31.445Z,28.33
2017-12-01T05:05:58.963Z,26.10
2017-12-01T05:08:26.471Z,25.63
2017-12-01T05:10:54.007Z,28.90
2017-12-01T05:13:21.530Z,30.13
2017-12-01T05:15:49.854Z,36.37
2017-12-01T05:18:17.411Z,30.77
2017-12-01T05:20:44.919Z,27.77
2017-12-01T05:23:13.211Z,29.00
2017-12-01T05:25:40.705Z,34.33
2017-12-01T05:28:08.207Z,33.67
2017-12-01T05:30:36.494Z,28.30
2017-12-01T05:33:04.757Z,31.03
2017-12-01T05:35:32.318Z,28.90
2017-12-01T05:37:59.813Z,33.80
2017-12-01T05:40:27.330Z,29.50
2017-12-01T05:42:54.826Z,29.80
2017-12-01T05:45:22.327Z,38.30
2017-12-01T05:47:49.850Z,54.40
2017-12-01T05:50:17.354Z,44.47
2017-12-01T05:52:44.870Z,40.27
2017-12-01T05:55:12.375Z,35.10
2017-12-01T05:57:39.878Z,41.43
2017-12-01T06:00:07.399Z,36.73
2017-12-01T06:02:34.899Z,32.97
2017-12-01T06:05:02.414Z,34.00
2017-12-01T06:07:29.919Z,30.60
2017-12-01T06:09:57.438Z,30.93
2017-12-01T06:12:25.697Z,38.17
2017-12-01T06:14:53.223Z,35.13
2017-12-01T06:17:20.726Z,34.93
2017-12-01T06:19:48.994Z,37.93
2017-12-01T06:22:16.514Z,37.17
2017-12-01T06:24:44.009Z,32.57
2017-12-01T06:27:11.532Z,31.53
2017-12-01T06:29:39.030Z,35.00
2017-12-01T06:32:06.538Z,32.77
2017-12-01T06:34:34.061Z,32.50
2017-12-01T06:37:02.330Z,31.60
2017-12-01T06:39:30.614Z,35.93
2017-12-01T06:41:58.874Z,35.60
2017-12-01T06:44:26.398Z,31.20
2017-12-01T06:46:53.898Z,33.37
2017-12-01T06:49:21.414Z,30.10
2017-12-01T06:51:48.910Z,31.73
2017-12-01T06:54:16.407Z,29.10
2017-12-01T06:56:43.922Z,29.97
2017-12-01T06:59:11.423Z,33.53
2017-12-01T07:01:38.946Z,33.47
2017-12-01T07:04:06.446Z,34.67
2017-12-01T07:06:33.950Z,33.33
2017-12-01T07:09:01.462Z,32.63
2017-12-01T07:11:29.026Z,29.30
2017-12-01T07:13:56.577Z,33.40
2017-12-01T07:16:24.079Z,30.97
2017-12-01T07:18:51.605Z,39.53
2017-12-01T07:21:19.098Z,40.47
2017-12-01T07:23:46.599Z,41.23
2017-12-01T07:26:25.962Z,33.00
2017-12-01T07:28:53.462Z,37.53
2017-12-01T07:31:21.043Z,33.53
2017-12-01T07:33:48.570Z,35.50
2017-12-01T07:36:16.104Z,39.53
2017-12-01T07:38:43.606Z,38.30
2017-12-01T07:41:11.893Z,37.07
2017-12-01T07:43:40.188Z,40.33
2017-12-01T07:46:07.691Z,55.03
2017-12-01T07:48:35.212Z,41.10
2017-12-01T07:51:02.723Z,38.33
2017-12-01T07:53:30.252Z,42.27
2017-12-01T07:55:57.767Z,39.40
2017-12-01T07:58:26.038Z,38.03
2017-12-01T08:00:54.327Z,42.23
2017-12-01T08:03:21.842Z,44.87
2017-12-01T08:05:49.371Z,44.23
2017-12-01T08:08:16.866Z,40.73
2017-12-01T08:10:44.366Z,36.33
2017-12-01T08:13:11.879Z,38.50
2017-12-01T08:15:51.143Z,35.03
2017-12-01T08:21:36.127Z,40.20
2017-12-01T08:24:16.318Z,38.13
2017-12-01T08:26:43.851Z,34.70
2017-12-01T08:29:12.106Z,31.13
2017-12-01T08:31:39.603Z,35.23
2017-12-01T08:34:07.117Z,46.53
2017-12-01T08:36:34.611Z,33.63
2017-12-01T08:39:02.128Z,38.33
2017-12-01T08:41:29.618Z,32.73
2017-12-01T08:43:57.878Z,43.90
2017-12-01T08:46:25.390Z,34.87
2017-12-01T08:48:52.882Z,35.20
2017-12-01T08:51:20.398Z,39.97
2017-12-01T08:53:47.890Z,33.13
2017-12-01T08:56:15.385Z,38.70
2017-12-01T08:58:43.665Z,33.93
2017-12-01T09:01:11.166Z,30.63
2017-12-01T09:03:38.678Z,30.33
2017-12-01T09:06:06.940Z,53.60
2017-12-01T09:08:35.198Z,39.13
2017-12-01T09:11:02.709Z,39.70
2017-12-01T09:13:30.214Z,30.90
2017-12-01T09:15:57.754Z,33.57
2017-12-01T09:18:25.244Z,33.50
2017-12-01T09:20:52.764Z,33.20
2017-12-01T09:23:20.274Z,30.80
2017-12-01T09:25:48.541Z,49.83
2017-12-01T09:28:16.822Z,36.47
2017-12-01T09:30:45.082Z,34.53
2017-12-01T09:33:12.689Z,28.57
2017-12-01T09:35:40.182Z,32.73
2017-12-01T09:38:07.670Z,33.90
2017-12-01T09:40:35.191Z,34.90
2017-12-01T09:43:03.451Z,30.33
2017-12-01T09:45:30.974Z,31.20
2017-12-01T09:47:59.229Z,29.87
2017-12-01T09:50:26.718Z,32.57
2017-12-01T09:52:54.254Z,31.17
2017-12-01T09:55:21.751Z,31.50
2017-12-01T09:57:49.275Z,29.70
2017-12-01T10:00:17.533Z,31.03
2017-12-01T10:02:45.026Z,28.80
2017-12-01T10:05:13.302Z,29.77
2017-12-01T10:07:40.794Z,31.77
2017-12-01T10:10:08.311Z,30.30
2017-12-01T10:12:36.570Z,32.23
2017-12-01T10:15:04.067Z,31.83
2017-12-01T10:17:31.594Z,35.70
2017-12-01T10:19:59.854Z,34.20
2017-12-01T10:22:27.373Z,31.20
2017-12-01T10:24:54.866Z,36.27
2017-12-01T10:27:22.382Z,35.40
2017-12-01T10:29:49.873Z,32.10
2017-12-01T10:32:17.368Z,35.90
2017-12-01T10:34:45.661Z,37.27
2017-12-01T10:37:13.162Z,46.40
2017-12-01T10:39:40.678Z,35.43
2017-12-01T10:42:08.167Z,35.27
2017-12-01T10:44:35.682Z,34.87
2017-12-01T10:47:03.938Z,40.13
2017-12-01T10:49:31.454Z,34.20
2017-12-01T10:51:58.942Z,34.27
2017-12-01T10:54:26.433Z,32.90
2017-12-01T10:56:54.710Z,36.40
2017-12-01T10:59:22.970Z,36.50
2017-12-01T11:01:50.548Z,33.03
2017-12-01T11:04:17.997Z,38.73
2017-12-01T11:06:46.259Z,32.13
2017-12-01T11:09:13.774Z,30.47
2017-12-01T11:11:41.266Z,39.20
2017-12-01T11:14:08.778Z,32.30
2017-12-01T11:16:36.265Z,33.10
2017-12-01T11:19:03.754Z,29.00
2017-12-01T11:21:32.034Z,27.87
2017-12-01T11:24:00.285Z,32.37
2017-12-01T11:26:27.795Z,29.57
2017-12-01T11:28:55.286Z,28.60
2017-12-01T11:31:22.778Z,30.73
2017-12-01T11:33:50.301Z,28.20
2017-12-01T11:36:17.791Z,50.10
2017-12-01T11:38:45.304Z,24.33
2017-12-01T11:41:12.799Z,27.97
2017-12-01T11:43:40.291Z,23.83
2017-12-01T11:46:07.802Z,22.87
2017-12-01T11:48:35.294Z,24.93
2017-12-01T11:51:03.580Z,22.50
2017-12-01T11:53:31.842Z,22.30
2017-12-01T11:56:00.103Z,29.50
2017-12-01T11:58:27.618Z,20.67
2017-12-01T12:00:55.108Z,25.50
2017-12-01T12:03:22.623Z,25.00
2017-12-01T12:05:50.118Z,21.17
2017-12-01T12:08:17.616Z,22.27
2017-12-01T12:10:45.904Z,21.03
2017-12-01T12:13:13.402Z,20.30
2017-12-01T12:15:40.922Z,22.17
2017-12-01T12:18:08.418Z,25.13
2017-12-01T12:20:35.914Z,20.10
2017-12-01T12:23:03.426Z,20.73
2017-12-01T12:25:30.914Z,21.43
2017-12-01T12:27:58.426Z,20.47
2017-12-01T12:30:25.918Z,17.27
2017-12-01T12:32:53.433Z,16.83
2017-12-01T12:35:20.938Z,17.13
2017-12-01T12:37:48.461Z,18.90
2017-12-01T12:40:15.953Z,22.00
2017-12-01T12:42:43.446Z,24.40
2017-12-01T12:45:11.734Z,19.60
2017-12-01T12:47:39.995Z,20.97
2017-12-01T12:50:08.286Z,23.50
2017-12-01T12:52:36.546Z,19.73
2017-12-01T12:55:04.802Z,20.13
2017-12-01T12:57:32.325Z,17.13
2017-12-01T12:59:59.823Z,18.20
2017-12-01T13:02:27.336Z,17.30
2017-12-01T13:04:54.830Z,16.53
2017-12-01T13:07:22.322Z,16.30
2017-12-01T13:09:50.638Z,16.63
2017-12-01T13:12:18.131Z,19.80
2017-12-01T13:14:45.650Z,20.17
2017-12-01T13:17:13.142Z,18.10
2017-12-01T13:19:40.657Z,14.30
2017-12-01T13:22:08.151Z,14.57
2017-12-01T13:24:35.650Z,15.80
2017-12-01T13:27:03.931Z,17.17
2017-12-01T13:29:32.186Z,19.30
2017-12-01T13:31:59.702Z,18.83
2017-12-01T13:34:27.189Z,17.60
2017-12-01T13:36:54.702Z,18.07
2017-12-01T13:39:22.194Z,17.40
2017-12-01T13:41:49.705Z,19.70
2017-12-01T13:44:17.220Z,14.20
2017-12-01T13:46:44.716Z,19.07
2017-12-01T13:49:12.993Z,18.07
2017-12-01T13:51:41.255Z,16.70
2017-12-01T13:54:09.532Z,18.50
2017-12-01T13:56:37.794Z,18.30
2017-12-01T13:59:05.282Z,18.57
2017-12-01T14:01:32.798Z,17.17
2017-12-01T14:04:00.298Z,19.53
2017-12-01T14:06:27.830Z,23.13
2017-12-01T14:08:55.321Z,18.53
2017-12-01T14:11:22.818Z,19.13
2017-12-01T14:13:51.108Z,16.63
2017-12-01T14:16:18.602Z,22.23
2017-12-01T14:18:46.882Z,21.00
2017-12-01T14:21:15.142Z,20.40
2017-12-01T14:23:43.430Z,20.93
2017-12-01T14:26:11.690Z,37.00
2017-12-01T14:28:39.958Z,23.13
2017-12-01T14:31:07.474Z,18.47
2017-12-01T14:33:34.966Z,24.07
2017-12-01T14:36:02.478Z,21.40
2017-12-01T14:38:29.970Z,19.93
2017-12-01T14:40:57.461Z,18.60
2017-12-01T14:43:25.738Z,21.60
2017-12-01T14:45:54.001Z,25.17
2017-12-01T14:48:21.522Z,23.67
2017-12-01T14:50:49.013Z,22.20
2017-12-01T14:53:16.530Z,19.40
2017-12-01T14:55:44.038Z,23.90
2017-12-01T14:58:11.558Z,24.00
2017-12-01T15:00:39.054Z,28.73
2017-12-01T15:03:06.570Z,23.33
2017-12-01T15:05:34.063Z,22.07
2017-12-01T15:08:01.587Z,25.07
2017-12-01T15:10:29.086Z,24.20
2017-12-01T15:12:56.581Z,26.00
2017-12-01T15:15:24.102Z,25.13
2017-12-01T15:17:51.603Z,26.43
2017-12-01T15:20:19.126Z,29.40
2017-12-01T15:22:47.391Z,26.83
2017-12-01T15:25:14.886Z,30.70
2017-12-01T15:27:42.407Z,25.33
2017-12-01T15:30:09.902Z,26.13
2017-12-01T15:32:37.427Z,26.10
2017-12-01T15:35:04.922Z,24.27
2017-12-01T15:37:32.423Z,24.97
2017-12-01T15:39:59.941Z,26.17
2017-12-01T15:42:27.438Z,25.90
2017-12-01T15:44:54.957Z,25.13
2017-12-01T15:47:22.453Z,30.53
2017-12-01T15:49:49.955Z,31.50
2017-12-01T15:52:18.275Z,25.90
2017-12-01T15:54:45.771Z,33.67
2017-12-01T15:57:13.290Z,32.10
2017-12-01T15:59:40.786Z,47.43
2017-12-01T16:02:08.277Z,31.77
2017-12-01T16:04:35.790Z,26.00
2017-12-01T16:07:03.281Z,30.83
2017-12-01T16:09:31.657Z,25.10
2017-12-01T16:11:59.918Z,32.70
2017-12-01T16:14:28.198Z,35.73
2017-12-01T16:16:55.714Z,34.90
2017-12-01T16:19:23.210Z,37.50
2017-12-01T16:21:50.725Z,37.20
2017-12-01T16:24:18.219Z,27.57
2017-12-01T16:26:45.711Z,27.77
2017-12-01T16:29:13.226Z,23.40
2017-12-01T16:31:40.729Z,28.47
2017-12-01T16:34:08.248Z,32.53
2017-12-01T16:36:35.737Z,28.70
2017-12-01T16:39:04.002Z,25.70
2017-12-01T16:41:32.290Z,26.17
2017-12-01T16:44:00.546Z,30.23
2017-12-01T16:46:28.067Z,29.27
2017-12-01T16:48:55.558Z,26.27
2017-12-01T16:51:23.073Z,25.50
2017-12-01T16:53:50.573Z,28.17
2017-12-01T16:56:18.090Z,41.03
2017-12-01T16:58:45.590Z,36.47
2017-12-01T17:01:13.086Z,50.37
2017-12-01T17:03:40.602Z,42.63
2017-12-01T17:06:08.094Z,49.60
2017-12-01T17:08:36.377Z,34.57
2017-12-01T17:11:03.870Z,53.63
2017-12-01T17:13:31.391Z,112.30
2017-12-01T17:15:59.651Z,30.63
2017-12-01T17:18:27.942Z,30.67
2017-12-01T17:20:55.442Z,29.63
2017-12-01T17:23:22.939Z,29.50
2017-12-01T17:25:51.222Z,28.73
2017-12-01T17:28:19.478Z,29.50
2017-12-01T17:30:46.994Z,30.17
2017-12-01T17:33:14.490Z,35.67
2017-12-01T17:35:42.017Z,36.63
2017-12-01T17:38:09.510Z,37.80
2017-12-01T17:40:37.026Z,34.13
2017-12-01T17:43:04.550Z,34.60
2017-12-01T17:45:32.815Z,42.60
2017-12-01T17:48:00.335Z,38.50
2017-12-01T17:50:27.826Z,41.27
2017-12-01T17:52:56.095Z,32.43
2017-12-01T17:55:23.606Z,33.93
2017-12-01T17:57:51.102Z,36.47
2017-12-01T18:00:18.620Z,33.63
2017-12-01T18:02:46.122Z,38.60
2017-12-01T18:05:13.643Z,42.13
2017-12-01T18:07:41.139Z,36.13
2017-12-01T18:10:08.652Z,34.07
2017-12-01T18:12:36.141Z,32.97
2017-12-01T18:15:03.658Z,31.87
2017-12-01T18:17:31.150Z,30.77
2017-12-01T18:19:58.650Z,28.37
2017-12-01T18:22:26.934Z,29.10
2017-12-01T18:24:55.193Z,29.53
2017-12-01T18:27:22.709Z,59.23
2017-12-01T18:29:50.202Z,28.03
2017-12-01T18:32:17.690Z,33.33
2017-12-01T18:34:45.998Z,31.47
2017-12-01T18:37:13.494Z,29.73
2017-12-01T18:39:41.014Z,32.17
2017-12-01T18:42:08.510Z,31.03
2017-12-01T18:44:36.038Z,39.60
2017-12-01T18:47:03.565Z,58.07
2017-12-01T18:49:31.827Z,62.60
2017-12-01T18:52:00.122Z,36.97
2017-12-01T18:54:28.383Z,35.00
2017-12-01T18:56:56.666Z,37.97
2017-12-01T18:59:24.937Z,47.10
2017-12-01T19:01:53.202Z,53.90
2017-12-01T19:04:20.718Z,41.93
2017-12-01T19:06:48.214Z,41.77
2017-12-01T19:09:15.730Z,41.17
2017-12-01T19:11:43.225Z,39.60
2017-12-01T19:14:10.722Z,41.90
2017-12-01T19:16:38.243Z,42.30
2017-12-01T19:19:05.744Z,31.67
2017-12-01T19:21:33.259Z,33.00
2017-12-01T19:24:00.750Z,36.23
2017-12-01T19:26:29.009Z,31.37
2017-12-01T19:28:57.635Z,32.67
2017-12-01T19:31:25.130Z,36.20
2017-12-01T19:33:52.652Z,41.90
2017-12-01T19:36:20.151Z,44.53
2017-12-01T19:38:47.654Z,59.07
2017-12-01T19:41:15.180Z,56.23
2017-12-01T19:43:43.446Z,54.07
2017-12-01T19:46:10.966Z,44.00
2017-12-01T19:48:38.458Z,44.87
2017-12-01T19:51:05.958Z,44.00
2017-12-01T19:53:33.471Z,36.37
2017-12-01T19:56:00.971Z,35.00
2017-12-01T19:58:28.490Z,31.97
2017-12-01T20:00:55.991Z,36.90
2017-12-01T20:03:23.482Z,41.47
2017-12-01T20:05:51.006Z,42.37
2017-12-01T20:08:18.503Z,39.50
2017-12-01T20:10:46.019Z,43.90
2017-12-01T20:13:13.519Z,44.17
2017-12-01T20:15:41.018Z,41.87
2017-12-01T20:18:09.298Z,44.40
2017-12-01T20:20:37.577Z,46.90
2017-12-01T20:23:05.862Z,39.20
2017-12-01T20:25:34.117Z,37.83
2017-12-01T20:28:01.614Z,32.20
2017-12-01T20:30:29.158Z,33.93
2017-12-01T20:32:57.422Z,29.77
2017-12-01T20:35:25.715Z,33.00
2017-12-01T20:37:53.209Z,29.13
2017-12-01T20:40:20.735Z,27.80
2017-12-01T20:42:48.226Z,30.00
2017-12-01T20:45:15.747Z,33.50
2017-12-01T20:47:43.251Z,31.37
2017-12-01T20:50:10.747Z,33.67
2017-12-01T20:52:39.177Z,33.37
2017-12-01T20:55:06.675Z,33.20
2017-12-01T20:57:35.693Z,36.67
2017-12-01T21:00:03.950Z,36.27
2017-12-01T21:02:32.209Z,35.87
2017-12-01T21:04:59.742Z,32.67
2017-12-01T21:07:27.249Z,38.17
2017-12-01T21:09:55.538Z,30.40
2017-12-01T21:12:23.801Z,34.53
2017-12-01T21:14:52.066Z,34.37
2017-12-01T21:17:19.598Z,31.87
2017-12-01T21:19:47.118Z,37.93
2017-12-01T21:22:14.647Z,43.70
2017-12-01T21:24:42.909Z,42.50
2017-12-01T21:27:10.410Z,42.87
2017-12-01T21:29:38.075Z,40.00
2017-12-01T21:32:06.414Z,42.00
2017-12-01T21:34:34.717Z,37.27
2017-12-01T21:37:02.982Z,35.63
2017-12-01T21:39:31.250Z,36.40
2017-12-01T21:41:59.538Z,37.20
2017-12-01T21:44:27.803Z,31.03
2017-12-01T21:46:56.094Z,36.23
2017-12-01T21:49:24.358Z,40.20
2017-12-01T21:51:52.630Z,36.43
2017-12-01T21:54:20.149Z,34.73
2017-12-01T21:56:47.670Z,38.10
2017-12-01T21:59:15.193Z,35.30
2017-12-01T22:01:42.686Z,30.93
2017-12-01T22:04:10.953Z,33.03
2017-12-01T22:06:39.242Z,36.97
2017-12-01T22:09:06.768Z,31.67
2017-12-01T22:11:35.049Z,30.47
2017-12-01T22:14:02.546Z,32.00
2017-12-01T22:16:30.061Z,28.00
2017-12-01T22:18:57.565Z,29.00
2017-12-01T22:21:25.066Z,29.83
2017-12-01T22:23:52.586Z,28.77
2017-12-01T22:26:20.086Z,31.17
2017-12-01T22:28:47.630Z,31.93
2017-12-01T22:31:15.126Z,33.87
2017-12-01T22:33:43.396Z,33.53
2017-12-01T22:36:11.686Z,33.63
2017-12-01T22:38:39.950Z,34.47
2017-12-01T22:41:07.470Z,32.47
2017-12-01T22:43:34.970Z,31.90
2017-12-01T22:46:03.236Z,29.80
2017-12-01T22:48:30.779Z,31.57
2017-12-01T22:50:58.282Z,31.47
2017-12-01T22:53:25.808Z,35.30
2017-12-01T22:55:53.302Z,29.33
2017-12-01T22:58:20.799Z,32.80
2017-12-01T23:00:48.318Z,32.87
2017-12-01T23:03:15.819Z,45.27
2017-12-01T23:05:43.338Z,44.60
2017-12-01T23:08:10.842Z,36.77
2017-12-01T23:10:38.366Z,44.40
2017-12-01T23:13:05.866Z,39.50
2017-12-01T23:15:33.358Z,33.77
2017-12-01T23:18:01.647Z,36.33
2017-12-01T23:20:29.146Z,41.30
2017-12-01T23:22:56.666Z,34.80
2017-12-01T23:25:24.171Z,39.33
2017-12-01T23:27:51.694Z,38.47
2017-12-01T23:30:19.194Z,48.93
2017-12-01T23:32:46.690Z,40.53
2017-12-01T23:35:14.973Z,43.33
2017-12-01T23:37:42.467Z,41.50
2017-12-01T23:40:09.990Z,50.27
2017-12-01T23:42:37.490Z,44.67
2017-12-01T23:45:04.990Z,39.57
2017-12-01T23:47:33.279Z,42.53
2017-12-01T23:50:00.782Z,38.70
2017-12-01T23:52:28.298Z,43.33
2017-12-01T23:54:55.794Z,39.17
2017-12-01T23:57:23.317Z,35.90
2017-12-01T23:59:50.814Z,36.63
